createdAt,value
2018-07-13T00:00:31.433Z,0
2018-07-13T00:01:11.841Z,0
2018-07-13T00:03:44.720Z,0
2018-07-13T00:04:25.364Z,0
2018-07-13T00:05:05.766Z,0
2018-07-13T00:07:23.425Z,0
2018-07-13T00:08:03.757Z,0
2018-07-13T00:08:44.226Z,0
2018-07-13T00:09:24.587Z,0
2018-07-13T00:10:04.984Z,0
2018-07-13T00:10:45.383Z,0
2018-07-13T00:11:25.840Z,0
2018-07-13T00:12:06.230Z,0
2018-07-13T00:12:46.630Z,0
2018-07-13T00:13:27.037Z,0
2018-07-13T00:14:07.478Z,0
2018-07-13T00:14:47.832Z,0
2018-07-13T00:15:28.216Z,0
2018-07-13T00:16:08.629Z,0
2018-07-13T00:16:49.056Z,0
2018-07-13T00:18:46.741Z,0
2018-07-13T00:19:27.015Z,0
2018-07-13T00:20:07.441Z,0
2018-07-13T00:20:47.829Z,0
2018-07-13T00:21:28.257Z,0
2018-07-13T00:22:08.644Z,0
2018-07-13T00:22:49.084Z,0
2018-07-13T00:23:29.448Z,0
2018-07-13T00:24:09.833Z,0
2018-07-13T00:24:50.258Z,0
2018-07-13T00:25:30.672Z,0
2018-07-13T00:26:11.092Z,0
2018-07-13T00:26:51.484Z,0
2018-07-13T00:29:19.296Z,0
2018-07-13T00:29:59.655Z,0
2018-07-13T00:30:39.994Z,0
2018-07-13T00:31:20.458Z,0
2018-07-13T00:32:00.827Z,0
2018-07-13T00:32:41.194Z,0
2018-07-13T00:33:21.574Z,0
2018-07-13T00:34:01.965Z,0
2018-07-13T00:34:42.433Z,0
2018-07-13T00:35:22.826Z,0
2018-07-13T00:36:03.254Z,0
2018-07-13T00:36:43.626Z,0
2018-07-13T00:37:24.006Z,0
2018-07-13T00:38:04.429Z,0
2018-07-13T00:38:44.795Z,0
2018-07-13T00:39:25.210Z,0
2018-07-13T00:40:05.610Z,0
2018-07-13T00:40:46.011Z,0
2018-07-13T00:41:26.438Z,0
2018-07-13T00:42:06.859Z,0
2018-07-13T00:42:47.244Z,0
2018-07-13T00:43:27.674Z,0
2018-07-13T00:44:08.066Z,0
2018-07-13T00:44:48.486Z,0
2018-07-13T00:47:21.697Z,0
2018-07-13T00:48:02.129Z,0
2018-07-13T00:48:42.555Z,0
2018-07-13T00:49:22.934Z,0
2018-07-13T00:50:03.335Z,0
2018-07-13T00:50:43.822Z,0
2018-07-13T00:51:24.195Z,0
2018-07-13T00:52:04.589Z,0
2018-07-13T00:52:45.041Z,0
2018-07-13T00:53:25.447Z,0
2018-07-13T00:54:05.845Z,0
2018-07-13T00:54:46.254Z,0
2018-07-13T00:55:26.729Z,0
2018-07-13T00:57:44.304Z,0
2018-07-13T00:58:24.794Z,0
2018-07-13T00:59:05.192Z,0
2018-07-13T00:59:45.588Z,0
2018-07-13T01:00:26.041Z,0
2018-07-13T01:01:06.532Z,0
2018-07-13T01:01:46.991Z,0
2018-07-13T01:02:27.322Z,0
2018-07-13T01:03:07.735Z,0
2018-07-13T01:03:48.126Z,0
2018-07-13T01:04:28.516Z,0
2018-07-13T01:05:08.941Z,0
2018-07-13T01:05:49.324Z,0
2018-07-13T01:06:29.731Z,0
2018-07-13T01:07:10.157Z,0
2018-07-13T01:07:50.556Z,0
2018-07-13T01:08:30.968Z,0
2018-07-13T01:09:11.410Z,0
2018-07-13T01:09:51.794Z,0
2018-07-13T01:10:32.176Z,0
2018-07-13T01:11:12.607Z,0
2018-07-13T01:11:53.027Z,0
2018-07-13T01:12:33.437Z,0
2018-07-13T01:13:14.350Z,0
2018-07-13T01:13:54.737Z,0
2018-07-13T01:14:35.162Z,0
2018-07-13T01:15:15.631Z,0
2018-07-13T01:15:56.019Z,0
2018-07-13T01:16:36.385Z,0
2018-07-13T01:17:16.831Z,0
2018-07-13T01:17:57.186Z,0
2018-07-13T01:18:37.657Z,0
2018-07-13T01:19:18.028Z,0
2018-07-13T01:19:58.489Z,0
2018-07-13T01:20:38.839Z,0
2018-07-13T01:21:19.239Z,0
2018-07-13T01:21:59.705Z,0
2018-07-13T01:22:40.119Z,0
2018-07-13T01:23:20.540Z,0
2018-07-13T01:24:00.932Z,0
2018-07-13T01:24:41.337Z,0
2018-07-13T01:25:21.706Z,0
2018-07-13T01:26:02.106Z,0
2018-07-13T01:26:42.560Z,0
2018-07-13T01:27:22.965Z,0
2018-07-13T01:28:03.385Z,0
2018-07-13T01:28:43.835Z,0
2018-07-13T01:29:24.190Z,0
2018-07-13T01:30:04.619Z,0
2018-07-13T01:30:45.006Z,0
2018-07-13T01:31:25.423Z,0
2018-07-13T01:32:05.828Z,0
2018-07-13T01:32:46.270Z,0
2018-07-13T01:33:26.682Z,0
2018-07-13T01:34:07.110Z,0
2018-07-13T01:34:47.522Z,0
2018-07-13T01:35:27.954Z,0
2018-07-13T01:36:08.344Z,0
2018-07-13T01:36:48.758Z,0
2018-07-13T01:37:29.208Z,0
2018-07-13T01:38:09.595Z,0
2018-07-13T01:38:50.020Z,0
2018-07-13T01:39:30.428Z,0
2018-07-13T01:40:10.827Z,0
2018-07-13T01:40:51.218Z,0
2018-07-13T01:41:31.635Z,0
2018-07-13T01:42:12.049Z,0
2018-07-13T01:42:52.476Z,0
2018-07-13T01:43:32.868Z,0
2018-07-13T01:44:13.301Z,0
2018-07-13T01:44:53.719Z,0
2018-07-13T01:45:34.054Z,0
2018-07-13T01:46:14.457Z,0
2018-07-13T01:46:54.868Z,0
2018-07-13T01:47:35.293Z,0
2018-07-13T01:48:15.719Z,0
2018-07-13T01:48:56.117Z,0
2018-07-13T01:49:36.537Z,0
2018-07-13T01:50:16.940Z,0
2018-07-13T01:50:57.348Z,0
2018-07-13T01:51:37.784Z,0
2018-07-13T01:52:18.164Z,0
2018-07-13T01:52:58.570Z,0
2018-07-13T01:53:38.973Z,0
2018-07-13T01:54:19.370Z,0
2018-07-13T01:54:59.766Z,0
2018-07-13T01:55:40.219Z,0
2018-07-13T01:56:20.574Z,0
2018-07-13T01:57:00.995Z,0
2018-07-13T01:57:41.392Z,0
2018-07-13T01:58:21.816Z,0
2018-07-13T01:59:02.216Z,0
2018-07-13T01:59:42.607Z,0
2018-07-13T02:00:23.020Z,0
2018-07-13T02:01:03.448Z,0
2018-07-13T02:01:43.834Z,0
2018-07-13T02:02:24.236Z,0
2018-07-13T02:03:04.655Z,0
2018-07-13T02:03:45.104Z,0
2018-07-13T02:05:58.613Z,0
2018-07-13T02:06:38.085Z,0
2018-07-13T02:07:18.445Z,0
2018-07-13T02:07:58.853Z,0
2018-07-13T02:08:39.263Z,0
2018-07-13T02:09:19.715Z,0
2018-07-13T02:10:00.104Z,0
2018-07-13T02:10:40.497Z,0
2018-07-13T02:11:20.940Z,0
2018-07-13T02:12:01.404Z,0
2018-07-13T02:12:41.830Z,0
2018-07-13T02:13:22.191Z,0
2018-07-13T02:14:02.585Z,0
2018-07-13T02:14:43.036Z,0
2018-07-13T02:16:56.728Z,0
2018-07-13T02:17:37.147Z,0
2018-07-13T02:18:17.556Z,0
2018-07-13T02:18:57.990Z,0
2018-07-13T02:19:38.412Z,0
2018-07-13T02:20:18.805Z,0
2018-07-13T02:20:59.294Z,0
2018-07-13T02:21:39.677Z,0
2018-07-13T02:22:20.088Z,0
2018-07-13T02:23:00.510Z,0
2018-07-13T02:23:40.902Z,0
2018-07-13T02:24:21.351Z,0
2018-07-13T02:25:01.808Z,0
2018-07-13T02:25:42.151Z,0
2018-07-13T02:26:22.560Z,0
2018-07-13T02:27:03.078Z,0
2018-07-13T02:27:43.384Z,0
2018-07-13T02:28:23.811Z,0
2018-07-13T02:29:04.211Z,0
2018-07-13T02:29:44.574Z,0
2018-07-13T02:30:25.031Z,0
2018-07-13T02:31:05.455Z,0
2018-07-13T02:31:45.912Z,0
2018-07-13T02:32:26.354Z,0
2018-07-13T02:33:06.771Z,0
2018-07-13T02:33:47.207Z,0
2018-07-13T02:34:27.594Z,0
2018-07-13T02:35:07.995Z,0
2018-07-13T02:35:48.480Z,0
2018-07-13T02:36:28.808Z,0
2018-07-13T02:37:09.218Z,0
2018-07-13T02:37:49.632Z,0
2018-07-13T02:38:30.065Z,0
2018-07-13T02:39:10.594Z,0
2018-07-13T02:39:50.871Z,0
2018-07-13T02:40:31.317Z,0
2018-07-13T02:41:11.779Z,0
2018-07-13T02:41:52.180Z,0
2018-07-13T02:42:32.580Z,0
2018-07-13T02:43:13.061Z,0
2018-07-13T02:43:53.418Z,0
2018-07-13T02:44:33.853Z,0
2018-07-13T02:45:14.274Z,0
2018-07-13T02:45:54.692Z,0
2018-07-13T02:46:35.095Z,0
2018-07-13T02:47:15.473Z,0
2018-07-13T02:47:55.901Z,0
2018-07-13T02:48:36.322Z,0
2018-07-13T02:49:16.734Z,0
2018-07-13T02:49:57.157Z,0
2018-07-13T02:50:37.571Z,0
2018-07-13T02:51:18.142Z,0
2018-07-13T02:51:58.615Z,0
2018-07-13T02:52:38.986Z,0
2018-07-13T02:53:19.395Z,0
2018-07-13T02:53:59.839Z,0
2018-07-13T02:54:40.259Z,0
2018-07-13T02:55:20.680Z,0
2018-07-13T02:56:01.069Z,0
2018-07-13T02:56:41.447Z,0
2018-07-13T02:57:21.871Z,0
2018-07-13T02:58:02.273Z,0
2018-07-13T02:58:42.642Z,0
2018-07-13T02:59:23.055Z,0
2018-07-13T03:00:03.449Z,4
2018-07-13T03:00:43.871Z,4
2018-07-13T03:01:24.296Z,4
2018-07-13T03:02:04.752Z,0
2018-07-13T03:02:45.079Z,0
2018-07-13T03:03:25.508Z,4
2018-07-13T03:04:05.902Z,4
2018-07-13T03:04:46.283Z,4
2018-07-13T03:05:26.685Z,0
2018-07-13T03:06:07.092Z,4
2018-07-13T03:06:47.524Z,4
2018-07-13T03:07:27.900Z,4
2018-07-13T03:08:08.310Z,4
2018-07-13T03:08:48.734Z,4
2018-07-13T03:09:29.117Z,8
2018-07-13T03:10:09.527Z,4
2018-07-13T03:10:49.921Z,8
2018-07-13T03:11:30.354Z,8
2018-07-13T03:12:10.758Z,8
2018-07-13T03:12:51.178Z,8
2018-07-13T03:13:31.613Z,8
2018-07-13T03:14:12.000Z,8
2018-07-13T03:14:52.412Z,12
2018-07-13T03:15:32.820Z,12
2018-07-13T03:16:13.247Z,12
2018-07-13T03:16:53.623Z,12
2018-07-13T03:17:34.033Z,12
2018-07-13T03:18:14.424Z,16
2018-07-13T03:20:27.085Z,20
2018-07-13T03:21:07.332Z,24
2018-07-13T03:21:47.780Z,24
2018-07-13T03:22:28.208Z,24
2018-07-13T03:23:08.579Z,24
2018-07-13T03:23:49.010Z,28
2018-07-13T03:24:29.380Z,28
2018-07-13T03:25:09.862Z,32
2018-07-13T03:25:50.245Z,32
2018-07-13T03:26:30.607Z,36
2018-07-13T03:27:11.004Z,40
2018-07-13T03:27:51.491Z,40
2018-07-13T03:28:31.861Z,44
2018-07-13T03:29:12.292Z,44
2018-07-13T03:29:52.670Z,48
2018-07-13T03:30:33.051Z,48
2018-07-13T03:31:13.450Z,52
2018-07-13T03:31:53.870Z,60
2018-07-13T03:34:26.655Z,68
2018-07-13T03:35:06.992Z,76
2018-07-13T03:35:47.403Z,76
2018-07-13T03:36:27.886Z,84
2018-07-13T03:37:08.222Z,84
2018-07-13T03:37:48.682Z,92
2018-07-13T03:38:29.167Z,96
2018-07-13T03:39:09.530Z,100
2018-07-13T03:39:49.882Z,104
2018-07-13T03:40:30.289Z,108
2018-07-13T03:41:10.765Z,112
2018-07-13T03:41:51.183Z,116
2018-07-13T03:42:31.564Z,124
2018-07-13T03:43:12.209Z,128
2018-07-13T03:43:52.597Z,136
2018-07-13T03:44:32.995Z,140
2018-07-13T03:45:13.391Z,148
2018-07-13T03:45:53.810Z,152
2018-07-13T03:46:34.225Z,160
2018-07-13T03:47:14.671Z,168
2018-07-13T03:47:55.072Z,172
2018-07-13T03:48:35.467Z,184
2018-07-13T03:49:15.868Z,192
2018-07-13T03:49:56.251Z,200
2018-07-13T03:50:36.688Z,208
2018-07-13T03:51:17.137Z,216
2018-07-13T03:51:57.608Z,224
2018-07-13T03:52:38.001Z,232
2018-07-13T03:53:18.459Z,248
2018-07-13T03:53:58.844Z,252
2018-07-13T03:54:39.289Z,264
2018-07-13T03:55:19.742Z,276
2018-07-13T03:56:00.244Z,288
2018-07-13T03:56:40.675Z,300
2018-07-13T03:57:21.076Z,312
2018-07-13T03:58:01.475Z,328
2018-07-13T03:58:41.962Z,336
2018-07-13T03:59:22.316Z,348
2018-07-13T04:00:02.701Z,364
2018-07-13T04:00:43.114Z,376
2018-07-13T04:01:23.539Z,388
2018-07-13T04:02:03.944Z,404
2018-07-13T04:47:13.322Z,6248
2018-07-13T04:47:54.155Z,6548
2018-07-13T04:48:34.576Z,6740
2018-07-13T04:49:14.945Z,7000
2018-07-13T04:49:56.075Z,7152
2018-07-13T04:50:42.581Z,7484
2018-07-13T04:51:29.764Z,7420
2018-07-13T04:52:11.438Z,7572
2018-07-13T04:52:51.406Z,7744
2018-07-13T04:53:35.166Z,8072
2018-07-13T04:54:15.543Z,8088
2018-07-13T04:54:55.979Z,8352
2018-07-13T04:55:36.387Z,8660
2018-07-13T04:56:16.814Z,9080
2018-07-13T04:56:57.192Z,8744
2018-07-13T04:57:37.594Z,8892
2018-07-13T04:58:17.980Z,9384
2018-07-13T04:58:58.389Z,9408
2018-07-13T04:59:38.804Z,9644
2018-07-13T05:00:19.209Z,10096
2018-07-13T05:00:59.663Z,10228
2018-07-13T05:01:40.776Z,10280
2018-07-13T05:02:21.185Z,10532
2018-07-13T05:03:02.552Z,10288
2018-07-13T05:03:42.888Z,10816
2018-07-13T05:04:23.310Z,10912
2018-07-13T05:05:03.770Z,11136
2018-07-13T05:05:44.108Z,11424
2018-07-13T05:10:48.023Z,12672
2018-07-13T05:11:28.247Z,12864
2018-07-13T05:12:08.626Z,12928
2018-07-13T05:12:49.583Z,12992
2018-07-13T05:13:30.034Z,13408
2018-07-13T05:17:43.771Z,14880
2018-07-13T05:18:24.171Z,15200
2018-07-13T05:19:04.777Z,15520
2018-07-13T05:19:45.231Z,15744
2018-07-13T05:20:25.710Z,15552
2018-07-13T05:21:06.165Z,16096
2018-07-13T05:21:46.601Z,16576
2018-07-13T05:22:26.932Z,16992
2018-07-13T05:23:07.443Z,17024
2018-07-13T05:25:38.982Z,16992
2018-07-13T05:26:19.621Z,17728
2018-07-13T05:26:59.914Z,17696
2018-07-13T05:27:40.368Z,17664
2018-07-13T05:28:20.772Z,17696
2018-07-13T05:29:01.146Z,17984
2018-07-13T05:29:41.663Z,17888
2018-07-13T05:30:22.117Z,18720
2018-07-13T05:31:02.517Z,19360
2018-07-13T05:31:42.981Z,19232
2018-07-13T05:32:23.290Z,19904
2018-07-13T05:33:03.635Z,20160
2018-07-13T05:33:44.128Z,20224
2018-07-13T05:37:42.418Z,21408
2018-07-13T05:38:22.694Z,22176
2018-07-13T05:39:03.015Z,22208
2018-07-13T05:39:43.416Z,22496
2018-07-13T05:40:23.829Z,22336
2018-07-13T05:41:04.322Z,22624
2018-07-13T05:41:44.689Z,23136
2018-07-13T05:42:25.236Z,22944
2018-07-13T05:43:05.560Z,22432
2018-07-13T05:43:45.907Z,24224
2018-07-13T05:44:26.345Z,24512
2018-07-13T05:45:06.725Z,25440
2018-07-13T05:45:47.136Z,25184
2018-07-13T05:46:27.611Z,25088
2018-07-13T05:47:08.011Z,25280
2018-07-13T05:47:48.457Z,24992
2018-07-13T05:48:28.943Z,26144
2018-07-13T05:49:09.369Z,26464
2018-07-13T05:49:49.985Z,26560
2018-07-13T05:50:30.249Z,26688
2018-07-13T05:51:10.789Z,27552
2018-07-13T05:51:51.991Z,28576
2018-07-13T05:52:32.456Z,29120
2018-07-13T05:53:12.786Z,29056
2018-07-13T05:53:53.323Z,28544
2018-07-13T05:54:33.592Z,27424
2018-07-13T05:55:14.062Z,27360
2018-07-13T05:55:54.495Z,27712
2018-07-13T05:56:34.972Z,29664
2018-07-13T05:57:15.398Z,29600
2018-07-13T05:57:56.048Z,30304
2018-07-13T05:58:36.568Z,31488
2018-07-13T05:59:16.994Z,31136
2018-07-13T05:59:57.449Z,30368
2018-07-13T06:00:37.883Z,30496
2018-07-13T06:01:18.287Z,31936
2018-07-13T06:01:58.835Z,31712
2018-07-13T06:02:39.302Z,32000
2018-07-13T06:03:19.796Z,32800
2018-07-13T06:04:00.545Z,33504
2018-07-13T06:04:40.862Z,32864
2018-07-13T06:05:21.328Z,33856
2018-07-13T06:06:02.157Z,34016
2018-07-13T06:06:43.568Z,34144
2018-07-13T06:07:23.874Z,35168
2018-07-13T06:10:12.758Z,33536
2018-07-13T06:11:06.835Z,34080
2018-07-13T06:12:06.072Z,36256
2018-07-13T06:14:04.323Z,34976
2018-07-13T06:14:44.824Z,35456
2018-07-13T06:15:25.158Z,36512
2018-07-13T06:16:05.582Z,35584
2018-07-13T06:16:46.113Z,35008
2018-07-13T06:17:26.523Z,33984
2018-07-13T06:18:06.997Z,36128
2018-07-13T06:18:47.448Z,36608
2018-07-13T06:19:27.846Z,36416
2018-07-13T06:20:08.373Z,35680
2018-07-13T06:22:51.822Z,38784
2018-07-13T06:23:29.223Z,41152
2018-07-13T06:24:09.297Z,43872
2018-07-13T06:24:49.772Z,43776
2018-07-13T06:25:30.129Z,42688
2018-07-13T06:26:10.664Z,42112
2018-07-13T06:26:51.029Z,40896
2018-07-13T06:27:31.495Z,39456
2018-07-13T06:28:12.440Z,38208
2018-07-13T06:28:53.043Z,36416
2018-07-13T06:29:33.469Z,35392
2018-07-13T06:30:14.234Z,36832
2018-07-13T06:30:54.369Z,37184
2018-07-13T06:31:34.992Z,39392
2018-07-13T06:32:15.423Z,40832
2018-07-13T06:32:55.784Z,40000
2018-07-13T06:33:36.215Z,34208
2018-07-13T06:34:16.654Z,30208
2018-07-13T06:34:57.092Z,28640
2018-07-13T06:35:37.530Z,27616
2018-07-13T06:36:18.029Z,27264
2018-07-13T06:36:58.439Z,26304
2018-07-13T06:37:38.899Z,26208
2018-07-13T06:38:19.329Z,26144
2018-07-13T06:38:59.727Z,25792
2018-07-13T06:39:40.173Z,26080
2018-07-13T06:40:20.592Z,26752
2018-07-13T06:41:01.640Z,28032
2018-07-13T06:41:42.112Z,28544
2018-07-13T06:42:22.514Z,28672
2018-07-13T06:43:03.606Z,29184
2018-07-13T06:43:43.989Z,28704
2018-07-13T06:44:24.387Z,27328
2018-07-13T06:45:04.815Z,24192
2018-07-13T06:45:45.215Z,23072
2018-07-13T06:46:25.617Z,23040
2018-07-13T06:47:06.118Z,23232
2018-07-13T06:47:46.674Z,23808
2018-07-13T06:48:27.070Z,23616
2018-07-13T06:49:08.157Z,23872
2018-07-13T06:49:48.587Z,24768
2018-07-13T06:50:29.122Z,25216
2018-07-13T06:51:09.482Z,25504
2018-07-13T06:51:49.970Z,26368
2018-07-13T06:52:30.490Z,26784
2018-07-13T06:53:10.833Z,26304
2018-07-13T06:53:51.255Z,26272
2018-07-13T06:54:31.769Z,25824
2018-07-13T06:55:12.216Z,25568
2018-07-13T06:55:52.651Z,25568
2018-07-13T06:56:33.091Z,23904
2018-07-13T06:57:13.629Z,22720
2018-07-13T06:57:54.037Z,22048
2018-07-13T06:58:34.406Z,21920
2018-07-13T06:59:14.872Z,21856
2018-07-13T06:59:55.361Z,22112
2018-07-13T07:00:35.764Z,21888
2018-07-13T07:01:16.243Z,21952
2018-07-13T07:01:56.654Z,23360
2018-07-13T07:02:37.340Z,26240
2018-07-13T07:03:17.724Z,29344
2018-07-13T07:03:59.867Z,34112
2018-07-13T07:04:40.300Z,38528
2018-07-13T07:05:20.374Z,40448
2018-07-13T07:06:00.614Z,41024
2018-07-13T07:06:41.054Z,40160
2018-07-13T07:07:21.496Z,39264
2018-07-13T07:08:01.940Z,38944
2018-07-13T07:08:42.434Z,39232
2018-07-13T07:09:22.881Z,38592
2018-07-13T07:10:03.312Z,38016
2018-07-13T07:10:43.759Z,38496
2018-07-13T07:11:24.313Z,38080
2018-07-13T07:12:05.754Z,39648
2018-07-13T07:12:45.764Z,41536
2018-07-13T07:13:26.836Z,42656
2018-07-13T07:14:06.735Z,43104
2018-07-13T07:14:47.594Z,43136
2018-07-13T07:15:28.067Z,43392
2018-07-13T07:16:08.481Z,43616
2018-07-13T07:16:48.879Z,42784
2018-07-13T07:17:29.531Z,43168
2018-07-13T07:18:10.629Z,40544
2018-07-13T07:18:51.055Z,39328
2018-07-13T07:19:31.442Z,32032
2018-07-13T07:20:11.938Z,23168
2018-07-13T07:20:52.286Z,17536
2018-07-13T07:21:32.704Z,16672
2018-07-13T07:22:13.148Z,15644
2018-07-13T07:22:53.589Z,14924
2018-07-13T07:23:34.047Z,14204
2018-07-13T07:24:14.491Z,13824
2018-07-13T07:24:54.993Z,13308
2018-07-13T07:25:35.424Z,12548
2018-07-13T07:26:15.979Z,12060
2018-07-13T07:26:56.591Z,11740
2018-07-13T07:27:36.966Z,11256
2018-07-13T07:28:17.596Z,11024
2018-07-13T07:28:59.277Z,10752
2018-07-13T07:29:38.809Z,10576
2018-07-13T07:30:19.227Z,10440
2018-07-13T07:31:00.138Z,10372
2018-07-13T07:31:40.647Z,10096
2018-07-13T07:32:21.212Z,10028
2018-07-13T07:33:02.152Z,9652
2018-07-13T07:33:43.801Z,9020
2018-07-13T07:34:24.291Z,8192
2018-07-13T07:35:04.795Z,7628
2018-07-13T07:35:46.264Z,7380
2018-07-13T07:36:26.196Z,7164
2018-07-13T07:37:06.564Z,6944
2018-07-13T07:37:47.092Z,6760
2018-07-13T07:38:27.453Z,6704
2018-07-13T07:39:07.895Z,6660
2018-07-13T07:39:48.518Z,6588
2018-07-13T07:40:28.910Z,6440
2018-07-13T07:42:54.977Z,6028
2018-07-13T07:43:34.762Z,5964
2018-07-13T07:44:15.475Z,5904
2018-07-13T07:44:55.991Z,5816
2018-07-13T07:45:36.408Z,5724
2018-07-13T07:46:17.537Z,5688
2018-07-13T07:46:57.995Z,5628
2018-07-13T07:47:39.035Z,5572
2018-07-13T07:48:19.369Z,5508
2018-07-13T07:49:00.035Z,5476
2018-07-13T07:49:41.594Z,5424
2018-07-13T07:50:22.134Z,5380
2018-07-13T07:51:02.628Z,5312
2018-07-13T07:51:43.197Z,5268
2018-07-13T07:52:23.934Z,5232
2018-07-13T07:53:04.325Z,5192
2018-07-13T07:53:44.804Z,5160
2018-07-13T07:54:25.249Z,5112
2018-07-13T07:55:05.634Z,5076
2018-07-13T07:55:46.086Z,5036
2018-07-13T07:56:26.465Z,4988
2018-07-13T07:57:06.883Z,4936
2018-07-13T07:57:47.280Z,4888
2018-07-13T07:58:27.715Z,4856
2018-07-13T07:59:11.220Z,4820
2018-07-13T07:59:51.744Z,4804
2018-07-13T08:00:32.343Z,4792
2018-07-13T08:01:12.830Z,4768
2018-07-13T08:01:53.420Z,4732
2018-07-13T08:02:33.633Z,4680
2018-07-13T08:03:14.101Z,4640
2018-07-13T08:03:54.541Z,4612
2018-07-13T08:04:35.174Z,4600
2018-07-13T08:05:15.461Z,4588
2018-07-13T08:05:55.893Z,4552
2018-07-13T08:06:36.530Z,4508
2018-07-13T08:07:17.350Z,4480
2018-07-13T08:07:57.108Z,4452
2018-07-13T08:08:37.608Z,4424
2018-07-13T08:09:18.023Z,4412
2018-07-13T08:09:58.388Z,4388
2018-07-13T08:10:38.898Z,4356
2018-07-13T08:11:19.311Z,4332
2018-07-13T08:11:59.675Z,4304
2018-07-13T08:12:40.091Z,4280
2018-07-13T08:13:20.632Z,4272
2018-07-13T08:14:01.296Z,4252
2018-07-13T08:14:41.451Z,4236
2018-07-13T08:15:21.875Z,4240
2018-07-13T08:16:02.284Z,4220
2018-07-13T08:16:42.705Z,4212
2018-07-13T08:17:23.123Z,4200
2018-07-13T08:18:03.564Z,4184
2018-07-13T08:18:44.031Z,4152
2018-07-13T08:19:25.415Z,4136
2018-07-13T08:20:05.646Z,4108
2018-07-13T08:20:46.030Z,4092
2018-07-13T08:21:26.732Z,4072
2018-07-13T08:22:07.152Z,4056
2018-07-13T08:22:47.549Z,4028
2018-07-13T08:23:27.998Z,4008
2018-07-13T08:24:08.431Z,4004
2018-07-13T08:24:48.868Z,3996
2018-07-13T08:27:21.850Z,3964
2018-07-13T08:28:03.244Z,3964
2018-07-13T08:28:43.768Z,3944
2018-07-13T08:29:23.633Z,3920
2018-07-13T08:30:04.062Z,3928
2018-07-13T08:30:44.578Z,3924
2018-07-13T08:31:25.007Z,3904
2018-07-13T08:32:05.413Z,3876
2018-07-13T08:32:45.923Z,3840
2018-07-13T08:33:26.273Z,3800
2018-07-13T08:34:06.690Z,3756
2018-07-13T08:34:47.113Z,3724
2018-07-13T08:35:27.556Z,3700
2018-07-13T08:36:08.730Z,3680
2018-07-13T08:36:49.397Z,3688
2018-07-13T08:37:29.850Z,3680
2018-07-13T08:38:10.252Z,3668
2018-07-13T08:38:50.769Z,3644
2018-07-13T08:39:31.131Z,3624
2018-07-13T08:40:11.563Z,3592
2018-07-13T08:40:52.032Z,3588
2018-07-13T08:41:32.437Z,3564
2018-07-13T08:42:12.927Z,3548
2018-07-13T08:42:53.367Z,3524
2018-07-13T08:43:33.801Z,3496
2018-07-13T08:44:14.173Z,3500
2018-07-13T08:44:54.604Z,3472
2018-07-13T08:45:35.379Z,3440
2018-07-13T08:46:15.782Z,3412
2018-07-13T08:46:56.395Z,3412
2018-07-13T08:47:36.965Z,3404
2018-07-13T08:48:17.511Z,3416
2018-07-13T08:48:58.246Z,3404
2018-07-13T08:49:39.789Z,3404
2018-07-13T08:50:19.703Z,3408
2018-07-13T08:51:00.240Z,3388
2018-07-13T08:51:41.859Z,3356
2018-07-13T08:52:21.333Z,3336
2018-07-13T08:53:02.009Z,3332
2018-07-13T08:53:44.790Z,3348
2018-07-13T08:54:25.106Z,3340
2018-07-13T08:55:05.606Z,3328
2018-07-13T08:55:46.294Z,3284
2018-07-13T08:56:27.010Z,3260
2018-07-13T08:57:08.267Z,3268
2018-07-13T08:57:48.145Z,3256
2018-07-13T08:58:29.239Z,3256
2018-07-13T08:59:09.615Z,3236
2018-07-13T08:59:50.367Z,3220
2018-07-13T09:00:30.902Z,3208
2018-07-13T09:01:12.285Z,3188
2018-07-13T09:01:51.944Z,3172
2018-07-13T09:02:32.480Z,3156
2018-07-13T09:03:12.957Z,3152
2018-07-13T09:03:53.521Z,3148
2018-07-13T09:04:34.951Z,3116
2018-07-13T09:05:15.292Z,3088
2018-07-13T09:05:55.693Z,3076
2018-07-13T09:06:36.774Z,3036
2018-07-13T09:07:16.973Z,2964
2018-07-13T09:07:57.442Z,3012
2018-07-13T09:08:38.275Z,3028
2018-07-13T09:09:18.906Z,3000
2018-07-13T09:09:59.332Z,2972
2018-07-13T09:10:39.805Z,2952
2018-07-13T09:11:20.296Z,2940
2018-07-13T09:12:00.702Z,2928
2018-07-13T09:12:41.364Z,2920
2018-07-13T09:13:22.775Z,2904
2018-07-13T09:14:02.368Z,2908
2018-07-13T09:14:42.919Z,2908
2018-07-13T09:15:23.422Z,2912
2018-07-13T09:16:04.530Z,2900
2018-07-13T09:16:46.346Z,2912
2018-07-13T09:17:26.924Z,2908
2018-07-13T09:18:07.593Z,2888
2018-07-13T09:18:48.256Z,2868
2018-07-13T09:19:30.547Z,2860
2018-07-13T09:20:11.753Z,2844
2018-07-13T09:20:51.757Z,2840
2018-07-13T09:21:32.214Z,2824
2018-07-13T09:22:13.911Z,2808
2018-07-13T09:22:53.662Z,2808
2018-07-13T09:23:34.774Z,2804
2018-07-13T09:24:15.771Z,2812
2018-07-13T09:24:55.654Z,2792
2018-07-13T09:25:36.141Z,2776
2018-07-13T09:26:16.618Z,2740
2018-07-13T09:26:57.116Z,2740
2018-07-13T09:27:38.295Z,2740
2018-07-13T09:28:18.527Z,2756
2018-07-13T09:28:59.166Z,2740
2018-07-13T09:29:39.736Z,2736
2018-07-13T09:30:20.531Z,2712
2018-07-13T09:31:01.059Z,2716
2018-07-13T09:31:41.516Z,2736
2018-07-13T09:32:21.933Z,2756
2018-07-13T09:33:03.034Z,2736
2018-07-13T09:33:43.458Z,2704
2018-07-13T09:34:24.019Z,2696
2018-07-13T09:35:04.665Z,2712
2018-07-13T09:35:45.686Z,2724
2018-07-13T09:36:26.381Z,2696
2018-07-13T09:37:06.866Z,2692
2018-07-13T09:37:48.296Z,2688
2018-07-13T09:38:29.980Z,2688
2018-07-13T09:39:09.537Z,2688
2018-07-13T09:39:49.968Z,2668
2018-07-13T09:40:30.560Z,2660
2018-07-13T09:41:10.974Z,2644
2018-07-13T09:41:51.706Z,2644
2018-07-13T09:42:32.172Z,2632
2018-07-13T09:43:12.856Z,2616
2018-07-13T09:43:53.562Z,2596
2018-07-13T09:44:33.953Z,2576
2018-07-13T09:45:16.069Z,2580
2018-07-13T09:45:57.567Z,2584
2018-07-13T09:46:38.026Z,2580
2018-07-13T09:47:19.272Z,2568
2018-07-13T09:47:58.862Z,2556
2018-07-13T09:48:39.315Z,2532
2018-07-13T09:49:19.721Z,2500
2018-07-13T09:50:00.779Z,2492
2018-07-13T09:50:41.807Z,2472
2018-07-13T09:51:22.103Z,2472
2018-07-13T09:52:03.339Z,2464
2018-07-13T09:52:43.772Z,2440
2018-07-13T09:53:25.092Z,2472
2018-07-13T09:54:05.586Z,2492
2018-07-13T09:54:46.091Z,2456
2018-07-13T09:55:26.540Z,2452
2018-07-13T09:56:06.985Z,2436
2018-07-13T09:56:47.387Z,2420
2018-07-13T09:57:27.848Z,2436
2018-07-13T09:58:08.307Z,2432
2018-07-13T09:58:48.771Z,2404
2018-07-13T09:59:29.193Z,2372
2018-07-13T10:00:09.650Z,2348
2018-07-13T10:00:50.470Z,2320
2018-07-13T10:01:30.931Z,2288
2018-07-13T10:02:14.302Z,2256
2018-07-13T10:02:54.742Z,2220
2018-07-13T10:03:35.180Z,2248
2018-07-13T10:04:17.217Z,2264
2018-07-13T10:43:29.818Z,2816
2018-07-13T10:44:10.575Z,2864
2018-07-13T10:44:52.393Z,2844
2018-07-13T10:45:34.089Z,2760
2018-07-13T10:46:14.879Z,2636
2018-07-13T10:46:55.293Z,2552
2018-07-13T10:47:35.767Z,2480
2018-07-13T10:48:16.777Z,2444
2018-07-13T10:48:57.161Z,2500
2018-07-13T10:49:38.509Z,2524
2018-07-13T10:50:18.916Z,2568
2018-07-13T10:50:59.363Z,2600
2018-07-13T10:51:39.798Z,2512
2018-07-13T10:52:20.319Z,2488
2018-07-13T10:53:01.559Z,2328
2018-07-13T10:53:42.018Z,2220
2018-07-13T10:54:22.414Z,2232
2018-07-13T10:55:02.846Z,2212
2018-07-13T10:55:43.302Z,2180
2018-07-13T10:56:23.709Z,2156
2018-07-13T10:57:04.766Z,2164
2018-07-13T10:57:45.111Z,2144
2018-07-13T10:58:25.703Z,2152
2018-07-13T10:59:06.223Z,2164
2018-07-13T10:59:46.612Z,2152
2018-07-13T11:00:27.037Z,2152
2018-07-13T11:01:07.446Z,2144
2018-07-13T11:01:47.886Z,2168
2018-07-13T11:02:28.260Z,2152
2018-07-13T11:03:08.677Z,2172
2018-07-13T11:03:49.101Z,2216
2018-07-13T11:04:29.545Z,2380
2018-07-13T11:05:09.942Z,2520
2018-07-13T11:05:52.688Z,2524
2018-07-13T11:06:33.076Z,2496
2018-07-13T11:07:13.389Z,2444
2018-07-13T11:07:53.893Z,2424
2018-07-13T11:08:37.354Z,2384
2018-07-13T11:09:17.792Z,2312
2018-07-13T11:09:58.212Z,2240
2018-07-13T11:10:38.634Z,2172
2018-07-13T11:11:19.032Z,2120
2018-07-13T11:11:59.471Z,2084
2018-07-13T11:12:39.885Z,2096
2018-07-13T11:13:20.311Z,2092
2018-07-13T11:14:00.760Z,2048
2018-07-13T11:14:41.159Z,2028
2018-07-13T11:15:21.560Z,1992
2018-07-13T11:16:02.106Z,1940
2018-07-13T11:16:42.536Z,1948
2018-07-13T11:17:22.952Z,1816
2018-07-13T11:18:03.350Z,1364